createdAt,value
2022-10-26T00:00:14.264Z,3.17
2022-10-26T00:05:36.334Z,2.95
2022-10-26T00:10:58.160Z,2.30
2022-10-26T00:16:27.608Z,2.60
2022-10-26T00:21:49.326Z,2.83
2022-10-26T00:27:11.035Z,2.63
2022-10-26T00:32:33.906Z,2.53
2022-10-26T00:37:56.173Z,2.80
2022-10-26T00:43:26.871Z,3.30
2022-10-26T00:48:55.547Z,2.28
2022-10-26T00:54:19.287Z,2.38
2022-10-26T00:59:43.816Z,2.90
2022-10-26T01:05:06.747Z,2.92
2022-10-26T01:10:29.330Z,2.60
2022-10-26T01:15:56.735Z,2.63
2022-10-26T01:21:43.406Z,2.63
2022-10-26T01:27:23.803Z,2.70
2022-10-26T01:33:04.398Z,2.70
2022-10-26T01:38:41.982Z,2.95
2022-10-26T01:44:10.711Z,2.75
2022-10-26T01:49:38.096Z,3.15
2022-10-26T01:55:04.992Z,3.25
2022-10-26T02:00:26.742Z,3.10
2022-10-26T02:06:07.198Z,3.45
2022-10-26T02:11:46.613Z,3.17
2022-10-26T02:17:27.446Z,2.97
2022-10-26T02:22:51.853Z,3.00
2022-10-26T02:28:18.990Z,3.58
2022-10-26T02:33:45.589Z,3.47
2022-10-26T02:39:09.993Z,3.60
2022-10-26T02:44:38.747Z,3.45
2022-10-26T02:50:00.521Z,3.28
2022-10-26T02:55:33.787Z,3.25
2022-10-26T03:00:55.822Z,2.97
2022-10-26T03:06:24.117Z,2.95
2022-10-26T03:11:45.827Z,2.92
2022-10-26T03:17:07.840Z,3.15
2022-10-26T03:22:29.540Z,3.60
2022-10-26T03:28:02.054Z,3.13
2022-10-26T03:33:27.034Z,2.90
2022-10-26T03:38:49.522Z,2.80
2022-10-26T03:44:11.243Z,2.83
2022-10-26T03:49:32.950Z,2.58
2022-10-26T03:54:54.624Z,2.63
2022-10-26T04:00:17.890Z,2.80
2022-10-26T04:05:39.642Z,2.70
2022-10-26T04:11:03.954Z,3.10
2022-10-26T04:16:31.012Z,3.50
2022-10-26T04:21:55.069Z,3.70
2022-10-26T04:27:16.756Z,4.80
2022-10-26T04:32:38.435Z,4.30
2022-10-26T04:38:02.194Z,4.10
2022-10-26T04:43:23.903Z,3.55
2022-10-26T04:48:47.938Z,3.00
2022-10-26T04:54:09.650Z,3.00
2022-10-26T04:59:31.359Z,2.95
2022-10-26T05:04:53.123Z,3.17
2022-10-26T05:10:14.887Z,3.05
2022-10-26T05:15:36.578Z,3.50
2022-10-26T05:20:58.290Z,3.50
2022-10-26T05:26:20.138Z,3.90
2022-10-26T05:31:41.838Z,3.75
2022-10-26T05:37:03.590Z,3.00
2022-10-26T05:42:25.442Z,3.03
2022-10-26T05:47:47.366Z,2.92
2022-10-26T05:53:09.352Z,3.63
2022-10-26T05:58:31.376Z,3.33
2022-10-26T06:04:17.515Z,3.17
2022-10-26T06:09:40.759Z,3.35
2022-10-26T06:15:02.642Z,3.22
2022-10-26T06:20:30.523Z,3.40
2022-10-26T06:26:05.317Z,3.72
2022-10-26T06:31:27.146Z,2.90
2022-10-26T06:36:49.898Z,2.90
2022-10-26T06:42:12.172Z,2.70
2022-10-26T06:47:42.136Z,2.45
2022-10-26T06:53:33.406Z,2.70
2022-10-26T06:59:03.462Z,3.47
2022-10-26T07:04:27.940Z,3.60
2022-10-26T07:09:49.885Z,3.65
2022-10-26T07:15:12.049Z,3.85
2022-10-26T07:20:41.490Z,4.18
2022-10-26T07:26:03.356Z,5.53
2022-10-26T07:31:26.192Z,5.40
2022-10-26T07:36:47.894Z,5.55
2022-10-26T07:42:09.631Z,5.30
2022-10-26T07:47:31.367Z,4.53
2022-10-26T07:52:53.415Z,3.80
2022-10-26T07:58:15.336Z,3.00
2022-10-26T08:03:37.400Z,3.25
2022-10-26T08:08:59.155Z,3.28
2022-10-26T08:14:20.932Z,2.90
2022-10-26T08:19:42.608Z,3.70
2022-10-26T08:25:04.632Z,3.63
2022-10-26T08:30:26.334Z,3.53
2022-10-26T08:35:48.438Z,2.88
2022-10-26T08:41:10.562Z,2.47
2022-10-26T08:46:40.175Z,2.63
2022-10-26T08:52:02.865Z,2.28
2022-10-26T08:57:41.282Z,2.63
2022-10-26T09:03:13.033Z,2.70
2022-10-26T09:08:53.735Z,2.38
2022-10-26T09:14:29.156Z,2.72
2022-10-26T09:20:05.615Z,2.83
2022-10-26T09:25:34.782Z,3.22
2022-10-26T09:30:58.987Z,3.38
2022-10-26T09:36:22.484Z,2.92
2022-10-26T09:41:51.961Z,2.80
2022-10-26T09:47:32.783Z,3.17
2022-10-26T09:52:54.520Z,2.65
2022-10-26T09:58:21.921Z,2.55
2022-10-26T10:03:43.598Z,2.13
2022-10-26T10:09:12.665Z,2.90
2022-10-26T10:14:40.076Z,2.40
2022-10-26T10:20:12.895Z,2.80
2022-10-26T10:25:40.010Z,2.70
2022-10-26T10:31:05.790Z,2.90
2022-10-26T10:36:30.154Z,3.08
2022-10-26T10:41:52.004Z,2.30
2022-10-26T10:47:27.333Z,2.70
2022-10-26T10:52:49.546Z,2.60
2022-10-26T10:58:45.018Z,3.03
2022-10-26T11:09:41.829Z,2.58
2022-10-26T11:15:08.782Z,3.00
2022-10-26T11:20:32.946Z,2.40
2022-10-26T11:26:09.837Z,2.42
2022-10-26T11:31:42.257Z,2.35
2022-10-26T11:37:11.277Z,2.72
2022-10-26T11:42:40.899Z,2.63
2022-10-26T11:48:14.458Z,2.25
2022-10-26T11:53:41.086Z,2.80
2022-10-26T12:04:33.390Z,2.45
2022-10-26T12:09:56.095Z,2.55
2022-10-26T12:15:40.336Z,2.38
2022-10-26T12:21:14.916Z,2.58
2022-10-26T12:26:36.529Z,2.22
2022-10-26T12:31:58.845Z,2.05
2022-10-26T12:37:33.679Z,4.57
2022-10-26T12:42:58.451Z,2.55
2022-10-26T12:48:46.766Z,2.50
2022-10-26T12:54:39.984Z,2.30
2022-10-26T13:00:05.740Z,1.85
2022-10-26T13:05:44.010Z,2.25
2022-10-26T13:11:15.437Z,2.08
2022-10-26T13:16:37.258Z,2.30
2022-10-26T13:22:00.263Z,3.08
2022-10-26T13:27:24.873Z,2.33
2022-10-26T13:32:56.436Z,2.45
2022-10-26T13:38:23.084Z,1.83
2022-10-26T13:43:46.704Z,2.10
2022-10-26T13:49:22.123Z,2.00
2022-10-26T13:54:54.620Z,2.30
2022-10-26T14:00:21.861Z,2.97
2022-10-26T14:05:49.947Z,1.90
2022-10-26T14:11:15.397Z,1.85
2022-10-26T14:16:37.228Z,1.92
2022-10-26T14:21:59.489Z,1.98
2022-10-26T14:27:32.868Z,1.95
2022-10-26T14:32:55.231Z,1.92
2022-10-26T14:38:22.326Z,2.25
2022-10-26T14:43:45.786Z,2.10
2022-10-26T14:49:19.308Z,2.20
2022-10-26T14:54:41.116Z,1.90
2022-10-26T15:00:12.211Z,2.35
2022-10-26T15:05:35.933Z,2.13
2022-10-26T15:10:57.827Z,2.35
2022-10-26T15:16:22.303Z,2.70
2022-10-26T15:21:48.527Z,2.60
2022-10-26T15:27:19.654Z,2.72
2022-10-26T15:32:41.463Z,3.33
2022-10-26T15:38:03.137Z,2.45
2022-10-26T15:43:24.946Z,3.05
2022-10-26T15:48:54.677Z,3.33
2022-10-26T15:54:17.544Z,3.67
2022-10-26T15:59:39.604Z,3.20
2022-10-26T16:05:01.286Z,4.03
2022-10-26T16:10:24.994Z,3.17
2022-10-26T16:15:46.775Z,3.13
2022-10-26T16:21:13.044Z,3.22
2022-10-26T16:26:34.787Z,3.63
2022-10-26T16:31:56.586Z,2.63
2022-10-26T16:37:18.272Z,3.55
2022-10-26T16:42:44.556Z,3.00
2022-10-26T16:48:13.723Z,3.28
2022-10-26T16:53:35.715Z,3.10
2022-10-26T16:58:57.510Z,3.20
2022-10-26T17:04:19.342Z,3.38
2022-10-26T17:09:41.048Z,3.30
2022-10-26T17:15:02.854Z,3.80
2022-10-26T17:20:24.684Z,3.50
2022-10-26T17:25:46.383Z,4.18
2022-10-26T17:31:11.600Z,3.13
2022-10-26T17:36:33.360Z,3.05
2022-10-26T17:41:55.089Z,2.92
2022-10-26T17:47:16.787Z,2.28
2022-10-26T17:52:38.525Z,2.65
2022-10-26T17:58:00.327Z,2.70
2022-10-26T18:03:22.091Z,2.63
2022-10-26T18:08:44.745Z,3.22
2022-10-26T18:14:06.427Z,3.20
2022-10-26T18:19:28.127Z,4.05
2022-10-26T18:24:49.971Z,3.50
2022-10-26T18:30:12.264Z,3.55
2022-10-26T18:35:33.964Z,4.00
2022-10-26T18:40:55.766Z,3.80
2022-10-26T18:46:21.672Z,4.97
2022-10-26T18:51:43.497Z,3.97
2022-10-26T18:57:05.166Z,4.40
2022-10-26T19:02:26.876Z,6.85
2022-10-26T19:07:48.641Z,4.88
2022-10-26T19:13:10.295Z,4.80
2022-10-26T19:18:32.106Z,7.03
2022-10-26T19:23:56.355Z,6.85
2022-10-26T19:29:19.106Z,6.32
2022-10-26T19:34:40.788Z,5.85
2022-10-26T19:40:02.508Z,4.70
2022-10-26T19:45:24.235Z,6.13
2022-10-26T19:50:56.938Z,5.82
2022-10-26T19:56:20.497Z,5.55
2022-10-26T20:01:42.337Z,6.18
2022-10-26T20:07:04.110Z,6.40
2022-10-26T20:12:25.977Z,6.35
2022-10-26T20:17:47.706Z,5.75
2022-10-26T20:23:10.520Z,6.55
2022-10-26T20:28:32.364Z,7.32
2022-10-26T20:33:54.215Z,6.05
2022-10-26T20:39:16.876Z,5.85
2022-10-26T20:44:43.204Z,5.75
2022-10-26T20:50:05.507Z,9.00
2022-10-26T20:55:53.245Z,5.80
2022-10-26T21:01:38.021Z,6.60
2022-10-26T21:07:00.004Z,5.25
2022-10-26T21:12:22.468Z,4.88
2022-10-26T21:17:44.297Z,5.65
2022-10-26T21:23:05.977Z,5.53
2022-10-26T21:28:33.878Z,4.97
2022-10-26T21:33:55.636Z,5.55
2022-10-26T21:39:17.381Z,5.30
2022-10-26T21:44:41.218Z,4.75
2022-10-26T21:50:03.575Z,4.10
2022-10-26T21:55:25.362Z,4.95
2022-10-26T22:00:47.039Z,4.40
2022-10-26T22:06:10.185Z,4.40
2022-10-26T22:11:33.647Z,5.25
2022-10-26T22:16:55.419Z,4.97
2022-10-26T22:22:17.089Z,4.90
2022-10-26T22:27:38.764Z,4.90
2022-10-26T22:33:00.426Z,4.68
2022-10-26T22:38:22.139Z,5.07
2022-10-26T22:43:44.058Z,5.60
2022-10-26T22:49:05.752Z,4.35
2022-10-26T22:54:27.439Z,4.40
2022-10-26T22:59:49.111Z,4.25
2022-10-26T23:05:10.830Z,4.55
2022-10-26T23:10:32.486Z,4.32
2022-10-26T23:15:54.453Z,4.85
2022-10-26T23:21:16.945Z,4.35
2022-10-26T23:26:38.693Z,5.00
2022-10-26T23:32:00.350Z,5.25
2022-10-26T23:37:22.007Z,4.82
2022-10-26T23:42:43.675Z,4.30
2022-10-26T23:48:05.654Z,4.82
2022-10-26T23:53:27.382Z,4.80
2022-10-26T23:58:51.969Z,5.47
